x

Port Colborne (45142) Wave Buoy

9:00am - Fri 9th Dec 2016 All times are CST. -6 hours from GMT.

  • Sig Wave height 5.2ft
  • Peak Period 8s
  • Wind
    18mph, 22mph gusts
  • Sea Temp 44°f
  • Air Temp 29°f
  • Sea Pressure 1025.6mb
  • Port Colborne
  • Port Colborne

More Historic Weather Station data

Upgrade to MSW Pro to gain access to the past 30 days of data for over 8000 Wavebouys and Weather Stations around the globe.

Join Pro

Comparision Forecast

View Surf forecast
   
Fri 12/09 9:00am 5ft 8s 18 22 mph 1025.6mb 44f 29f
8:00am 5.5ft 8s 20 25 mph 1024.4mb 44f 30f
7:00am 5ft 8s 22 29 mph 1023.6mb 45f 30f
6:00am 5.5ft 7s 20 25 mph 1022.9mb 44f 30f
5:00am 5.5ft 7s 16 20 mph 1022.2mb 45f 30f
4:00am 6ft 7s 18 22 mph 1021.5mb 45f 31f
3:00am 6.5ft 8s 20 25 mph 1021mb 45f 32f
2:00am 7ft 8s 18 22 mph 1020.6mb 45f 31f
1:00am 8ft 8s 25 29 mph 1019.6mb 45f 33f
12:00am 8ft 7s 27 31 mph 1018.7mb 45f 33f
Thu 12/08 11:00pm 8.5ft 7s 29 36 mph 1018.2mb 45f 34f
10:00pm 9ft 6s 29 36 mph 1017.9mb 45f 34f
9:00pm 8.5ft 8s 31 36 mph 1017.5mb 45f 34f
8:00pm 8ft 8s 29 36 mph 1017.3mb 45f 34f
7:00pm 8ft 8s 29 36 mph 1017.2mb 45f 33f
6:00pm 8ft 7s 29 36 mph 1017mb 45f 33f
5:00pm 7ft 7s 31 36 mph 1017mb 45f 33f
4:00pm 7.5ft 8s 29 36 mph 1016.6mb 45f 32f
2:00pm 7.5ft 7s 29 36 mph 1015.1mb 45f 33f
1:00pm 8ft 7s 31 40 mph 1014.3mb 46f 33f
12:00pm 7ft 7s 27 34 mph 1014.2mb 46f 34f
11:00am 7.5ft 8s 27 34 mph 1014.2mb 46f 34f
10:00am 6.5ft 7s 27 34 mph 1014.3mb 46f 34f
9:00am 7ft 8s 25 31 mph 1014.6mb 46f 34f
8:00am 7ft 6s 25 29 mph 1014mb 46f 35f
7:00am 7ft 7s 27 34 mph 1013.7mb 46f 36f
6:00am  -   -  25
mph
1013.5mb - 36f
5:00am 7.5ft 8s 27 31 mph 1013.4mb 46f 36f
4:00am 7.5ft 7s 25 31 mph 1013.2mb 46f 37f
3:00am 7ft 6s 22 27 mph 1013.2mb 46f 37f
2:00am 7.5ft 6s 25 29 mph 1013.3mb 46f 38f
1:00am 7ft 7s 27 36 mph 1013.7mb 46f 39f
12:00am  -   -  27
mph
1013.8mb 46f 39f
Wed 12/07 11:00pm 7ft 7s 22 29 mph 1014mb 46f 40f
10:00pm 7.5ft 7s 25 31 mph 1014.1mb 46f 41f
9:00pm 7.5ft 7s 27 34 mph 1014.2mb 46f 42f
8:00pm 8ft 7s 27 34 mph 1014.5mb 46f 41f
7:00pm 8ft 6s 27 31 mph 1015mb 46f 41f
6:00pm 7ft 7s 27 34 mph 1015.3mb 46f 41f
5:00pm 7.5ft 7s 29 36 mph 1015.5mb 46f 41f
4:00pm 8ft 7s 27 34 mph 1015.4mb 46f 40f
3:00pm 8ft 7s 25 29 mph 1015.4mb 46f 40f
2:00pm 7.5ft 7s 27 31 mph 1015.2mb 46f 40f
1:00pm 7.5ft 7s 29 36 mph 1015mb 46f 40f
12:00pm 7ft 7s 27 31 mph 1014.4mb 46f 40f
11:00am 7ft 6s 25 29 mph 1014.9mb 46f 40f
10:00am 7ft 7s 27 34 mph 1014.8mb 46f 40f
9:00am 6.5ft 7s 27 34 mph 1015.3mb 46f 40f
8:00am 6ft 7s 22 31 mph 1015mb 46f 39f
7:00am 5ft 6s 25 29 mph 1013.9mb 46f 40f
6:00am  -   -  22
mph
- - -
5:00am 6ft 6s 27 31 mph 1013mb 46f 40f
4:00am 5ft 6s 27 31 mph 1011.8mb 47f 41f
3:00am 5ft 5s 25 31 mph 1011mb 47f 43f
2:00am 4ft 5s 29 34 mph 1009.2mb 47f 43f
1:00am 4ft 5s 18 22 mph 1008.5mb 47f 45f
12:00am 2.5ft 4s 20 25 mph 1007.7mb 47f 44f
Tue 12/06 11:00pm 1.6ft 3s 22 25 mph 1007.4mb 47f 43f
9:00pm 0.7ft 3s 13 20 mph 1007.7mb 47f 40f
8:00pm 0.7ft 3s 11 16 mph 1007.7mb 47f 39f
6:00pm 1ft 3s 13 18 mph 1008.2mb 47f 39f
5:00pm 1ft 3s 13 16 mph 1008.7mb 47f 38f
4:00pm 1.3ft 3s 13 18 mph 1008.9mb 47f 40f
3:00pm 1ft 3s 16 20 mph 1009mb 47f 42f
2:00pm 1.3ft 3s 13 16 mph 1008.6mb 47f 43f
11:00am 2ft 4s 18 20 mph 1010.8mb 47f 42f
10:00am 2ft 4s 18 25 mph 1012.2mb 46f 42f
9:00am 2ft 3s 18 20 mph 1014.1mb 46f 40f
8:00am 2ft 4s 20 25 mph 1015mb 46f 40f
7:00am 2ft 3s 22 27 mph 1015.7mb 46f 41f
6:00am 1.6ft 5s 18 20 mph 1017.1mb 46f 41f
5:00am 1.6ft 5s 13
mph
1017.9mb 46f 41f
4:00am 1.3ft 6s 13 16 mph 1018.2mb 46f 41f
3:00am 2ft 5s 11 13 mph 1018.2mb 46f 42f
2:00am 2.5ft 6s 9 11 mph 1018.9mb 46f 42f
1:00am 2.5ft 6s 2 4 mph 1019.5mb 46f 42f
12:00am 2.5ft 6s 4
mph
1019.5mb 46f 42f
Mon 12/05 11:00pm 2.5ft 6s 2 4 mph 1019.6mb 46f 42f
10:00pm 3ft 6s 7 9 mph 1019.7mb 47f 42f
9:00pm 3.5ft 6s 13 16 mph 1019.3mb 47f 42f
8:00pm 3.5ft 6s 13 16 mph 1019.4mb 47f 42f
7:00pm 4ft 6s 13 16 mph 1019.2mb 47f 42f
6:00pm 4.5ft 7s 13 16 mph 1018.9mb 47f 42f
5:00pm 4.5ft 5s 18 20 mph 1018.3mb 47f 43f